createdAt,value
2022-12-31T00:00:32.715Z,33.58
2022-12-31T00:03:04.557Z,34.47
2022-12-31T00:05:37.034Z,35.08
2022-12-31T00:08:08.140Z,34.67
2022-12-31T00:10:44.028Z,34.83
2022-12-31T00:13:15.263Z,39.53
2022-12-31T00:15:46.462Z,37.35
2022-12-31T00:18:19.828Z,39.22
2022-12-31T00:20:53.381Z,33.72
2022-12-31T00:23:25.090Z,32.65
2022-12-31T00:25:55.625Z,27.20
2022-12-31T00:28:25.991Z,27.33
2022-12-31T00:30:57.088Z,30.13
2022-12-31T00:33:28.047Z,35.22
2022-12-31T00:36:10.694Z,35.88
2022-12-31T00:38:43.089Z,25.00
2022-12-31T00:41:14.917Z,22.77
2022-12-31T00:43:45.836Z,21.05
2022-12-31T00:46:22.945Z,19.85
2022-12-31T00:48:53.567Z,20.52
2022-12-31T00:51:28.437Z,20.00
2022-12-31T00:53:59.521Z,20.08
2022-12-31T00:56:31.523Z,19.85
2022-12-31T00:59:02.467Z,22.13
2022-12-31T01:01:35.516Z,22.30
2022-12-31T01:04:11.704Z,22.65
2022-12-31T01:06:46.310Z,23.35
2022-12-31T01:09:17.933Z,18.08
2022-12-31T01:11:48.467Z,19.60
2022-12-31T01:14:23.926Z,18.52
2022-12-31T01:16:55.525Z,18.67
2022-12-31T01:19:29.241Z,19.08
2022-12-31T01:22:00.120Z,18.95
2022-12-31T01:24:30.698Z,25.70
2022-12-31T01:27:02.136Z,26.02
2022-12-31T01:29:32.476Z,26.95
2022-12-31T01:32:03.253Z,26.67
2022-12-31T01:34:33.735Z,28.25
2022-12-31T01:37:04.738Z,32.05
2022-12-31T01:39:37.612Z,33.70
2022-12-31T01:42:10.462Z,31.40
2022-12-31T01:44:40.781Z,28.10
2022-12-31T01:47:17.134Z,26.38
2022-12-31T01:49:55.834Z,25.90
2022-12-31T01:52:32.921Z,24.60
2022-12-31T01:55:10.407Z,28.58
2022-12-31T01:57:43.360Z,21.42
2022-12-31T02:00:15.839Z,24.92
2022-12-31T02:02:50.204Z,20.95
2022-12-31T02:05:48.624Z,21.80
2022-12-31T02:08:19.873Z,24.35
2022-12-31T02:10:51.203Z,28.77
2022-12-31T02:13:22.597Z,28.88
2022-12-31T02:16:06.845Z,24.75
2022-12-31T02:18:48.656Z,25.10
2022-12-31T02:21:30.906Z,21.08
2022-12-31T02:24:02.791Z,18.52
2022-12-31T02:26:41.895Z,22.92
2022-12-31T02:29:50.041Z,23.60
2022-12-31T02:32:32.228Z,24.25
2022-12-31T02:35:38.657Z,24.98
2022-12-31T02:38:21.695Z,25.88
2022-12-31T02:40:55.272Z,25.92
2022-12-31T02:43:27.274Z,26.13
2022-12-31T02:46:22.508Z,26.70
2022-12-31T02:49:04.586Z,26.08
2022-12-31T02:51:46.465Z,28.27
2022-12-31T02:54:33.562Z,27.08
2022-12-31T02:57:12.201Z,26.92
2022-12-31T03:00:31.180Z,32.50
2022-12-31T03:03:03.401Z,27.50
2022-12-31T03:05:37.923Z,23.83
2022-12-31T03:08:08.605Z,24.08
2022-12-31T03:10:39.203Z,23.20
2022-12-31T03:13:09.791Z,17.77
2022-12-31T03:15:40.694Z,16.77
2022-12-31T03:18:17.166Z,16.40
2022-12-31T03:21:08.881Z,15.60
2022-12-31T03:23:42.264Z,14.57
2022-12-31T03:26:15.784Z,14.55
2022-12-31T03:28:48.635Z,14.65
2022-12-31T03:31:19.375Z,13.93
2022-12-31T03:33:50.551Z,14.45
2022-12-31T03:36:21.113Z,13.88
2022-12-31T03:38:52.956Z,13.23
2022-12-31T03:41:24.755Z,13.68
2022-12-31T03:43:55.477Z,13.35
2022-12-31T03:46:26.456Z,12.88
2022-12-31T03:48:56.817Z,12.15
2022-12-31T03:51:27.171Z,12.32
2022-12-31T03:53:58.399Z,12.52
2022-12-31T03:56:29.454Z,13.32
2022-12-31T03:59:00.605Z,13.40
2022-12-31T04:01:33.172Z,13.45
2022-12-31T04:04:03.938Z,10.98
2022-12-31T04:06:34.456Z,9.27
2022-12-31T04:09:07.838Z,8.35
2022-12-31T04:11:38.574Z,8.95
2022-12-31T04:14:09.904Z,8.77
2022-12-31T04:16:41.633Z,8.27
2022-12-31T04:19:14.066Z,10.05
2022-12-31T04:21:45.270Z,8.80
2022-12-31T04:24:15.616Z,8.85
2022-12-31T04:26:46.317Z,9.98
2022-12-31T04:29:17.324Z,10.77
2022-12-31T04:31:49.031Z,9.45
2022-12-31T04:34:19.619Z,9.45
2022-12-31T04:36:50.324Z,9.32
2022-12-31T04:39:24.093Z,9.73
2022-12-31T04:41:54.974Z,9.57
2022-12-31T04:44:26.610Z,11.40
2022-12-31T04:47:06.195Z,9.07
2022-12-31T04:49:36.774Z,8.45
2022-12-31T04:52:07.471Z,7.70
2022-12-31T04:54:38.004Z,7.25
2022-12-31T04:57:08.575Z,6.85
2022-12-31T04:59:39.169Z,7.20
2022-12-31T05:02:09.909Z,7.35
2022-12-31T05:04:40.748Z,6.15
2022-12-31T05:07:11.335Z,6.13
2022-12-31T05:09:42.609Z,4.93
2022-12-31T05:12:13.249Z,5.30
2022-12-31T05:14:47.673Z,5.55
2022-12-31T05:17:20.580Z,6.03
2022-12-31T05:19:51.076Z,5.80
2022-12-31T05:22:31.010Z,5.20
2022-12-31T05:25:02.361Z,6.60
2022-12-31T05:27:33.081Z,6.40
2022-12-31T05:30:04.586Z,5.28
2022-12-31T05:32:35.325Z,5.53
2022-12-31T05:35:10.030Z,5.63
2022-12-31T05:37:41.018Z,4.40
2022-12-31T05:40:12.578Z,3.83
2022-12-31T05:42:42.884Z,4.00
2022-12-31T05:45:16.833Z,4.75
2022-12-31T05:47:49.531Z,3.83
2022-12-31T05:50:20.474Z,3.45
2022-12-31T05:52:59.345Z,4.55
2022-12-31T05:55:29.912Z,3.78
2022-12-31T05:58:01.585Z,3.63
2022-12-31T06:00:34.745Z,4.47
2022-12-31T06:03:05.065Z,3.72
2022-12-31T06:05:36.512Z,4.40
2022-12-31T06:08:07.040Z,3.53
2022-12-31T06:10:38.395Z,3.88
2022-12-31T06:13:11.687Z,3.10
2022-12-31T06:15:42.407Z,3.90
2022-12-31T06:18:13.082Z,3.38
2022-12-31T06:20:43.951Z,3.83
2022-12-31T06:23:17.497Z,3.97
2022-12-31T06:25:47.802Z,3.90
2022-12-31T06:28:20.603Z,3.88
2022-12-31T06:30:51.154Z,3.75
2022-12-31T06:33:23.112Z,3.70
2022-12-31T06:35:58.063Z,3.78
2022-12-31T06:38:31.100Z,4.60
2022-12-31T06:41:05.876Z,6.40
2022-12-31T06:43:46.290Z,8.68
2022-12-31T06:46:18.372Z,5.53
2022-12-31T06:48:49.425Z,5.25
2022-12-31T06:51:21.777Z,5.40
2022-12-31T06:53:53.282Z,4.57
2022-12-31T06:56:32.956Z,5.60
2022-12-31T06:59:06.017Z,6.88
2022-12-31T07:01:39.197Z,5.93
2022-12-31T07:04:30.782Z,6.10
2022-12-31T07:07:14.935Z,6.68
2022-12-31T07:09:55.020Z,7.05
2022-12-31T07:12:50.531Z,7.28
2022-12-31T07:15:42.171Z,6.13
2022-12-31T07:18:58.166Z,5.60
2022-12-31T07:21:41.249Z,5.93
2022-12-31T07:24:13.116Z,5.72
2022-12-31T07:26:56.934Z,5.28
2022-12-31T07:29:41.138Z,5.38
2022-12-31T07:32:46.327Z,5.00
2022-12-31T07:35:31.215Z,5.18
2022-12-31T07:38:29.422Z,5.65
2022-12-31T07:41:09.782Z,6.22
2022-12-31T07:44:21.931Z,5.10
2022-12-31T07:47:00.727Z,6.20
2022-12-31T07:49:32.796Z,7.05
2022-12-31T07:52:03.554Z,5.90
2022-12-31T07:54:34.539Z,6.75
2022-12-31T07:57:05.269Z,9.93
2022-12-31T07:59:39.297Z,7.88
2022-12-31T08:02:15.935Z,8.75
2022-12-31T08:05:01.149Z,10.25
2022-12-31T08:07:34.631Z,12.32
2022-12-31T08:10:38.187Z,9.57
2022-12-31T08:13:11.607Z,9.25
2022-12-31T08:15:42.411Z,12.00
2022-12-31T08:18:13.596Z,11.57
2022-12-31T08:21:14.575Z,9.32
2022-12-31T08:24:10.791Z,9.20
2022-12-31T08:27:05.362Z,11.60
2022-12-31T08:29:42.659Z,12.07
2022-12-31T08:32:23.558Z,16.52
2022-12-31T08:35:50.374Z,18.27
2022-12-31T08:38:44.010Z,19.92
2022-12-31T08:41:40.680Z,28.75
2022-12-31T08:44:28.699Z,22.83
2022-12-31T08:47:09.167Z,18.00
2022-12-31T08:49:39.995Z,19.67
2022-12-31T08:52:17.823Z,19.60
2022-12-31T08:54:50.488Z,21.50
2022-12-31T08:57:27.527Z,20.98
2022-12-31T09:00:16.625Z,19.38
2022-12-31T09:02:48.389Z,22.35
2022-12-31T09:05:46.086Z,22.02
2022-12-31T09:08:46.673Z,18.60
2022-12-31T09:11:23.656Z,18.15
2022-12-31T09:14:35.083Z,19.42
2022-12-31T09:17:21.432Z,24.77
2022-12-31T09:19:55.523Z,27.38
2022-12-31T09:22:26.565Z,25.55
2022-12-31T09:24:57.476Z,22.60
2022-12-31T09:27:42.357Z,27.17
2022-12-31T09:30:15.045Z,30.45
2022-12-31T09:33:00.532Z,22.95
2022-12-31T09:35:45.050Z,21.30
2022-12-31T09:38:55.567Z,21.48
2022-12-31T09:41:38.531Z,25.65
2022-12-31T09:44:43.225Z,26.48
2022-12-31T09:47:26.453Z,31.90
2022-12-31T09:50:21.755Z,29.25
2022-12-31T09:53:10.536Z,30.92
2022-12-31T09:56:03.195Z,28.15
2022-12-31T09:58:39.955Z,26.70
2022-12-31T10:01:40.042Z,28.27
2022-12-31T10:04:49.426Z,28.30
2022-12-31T10:07:19.905Z,28.25
2022-12-31T10:10:02.426Z,30.48
2022-12-31T10:12:41.207Z,41.30
2022-12-31T10:15:47.129Z,37.10
2022-12-31T10:18:20.664Z,39.00
2022-12-31T10:21:28.046Z,52.30
2022-12-31T10:24:10.916Z,52.80
2022-12-31T10:26:53.941Z,48.38
2022-12-31T10:29:35.754Z,41.40
2022-12-31T10:32:19.214Z,41.30
2022-12-31T10:35:11.623Z,46.40
2022-12-31T10:37:49.776Z,49.60
2022-12-31T10:40:21.135Z,52.67
2022-12-31T10:43:07.532Z,61.72
2022-12-31T10:45:48.276Z,68.95
2022-12-31T10:48:37.191Z,79.15
2022-12-31T10:51:16.301Z,72.50
2022-12-31T10:54:20.925Z,63.42
2022-12-31T10:57:16.487Z,67.65
2022-12-31T11:00:10.542Z,57.85
2022-12-31T11:02:50.006Z,60.47
2022-12-31T11:05:35.359Z,57.42
2022-12-31T11:08:43.331Z,55.60
2022-12-31T11:11:19.782Z,59.30
2022-12-31T11:14:20.966Z,62.00
2022-12-31T11:17:13.826Z,65.28
2022-12-31T11:20:11.674Z,61.25
2022-12-31T11:22:59.820Z,57.33
2022-12-31T11:25:38.989Z,60.70
2022-12-31T11:28:36.007Z,60.08
2022-12-31T11:31:28.876Z,58.33
2022-12-31T11:34:21.463Z,52.40
2022-12-31T11:37:09.890Z,50.93
2022-12-31T11:39:50.231Z,47.08
2022-12-31T11:42:51.167Z,49.35
2022-12-31T11:45:51.018Z,50.08
2022-12-31T11:48:31.561Z,49.58
2022-12-31T11:51:27.214Z,48.63
2022-12-31T11:54:23.048Z,48.10
2022-12-31T11:57:13.268Z,50.75
2022-12-31T11:59:49.813Z,43.30
2022-12-31T12:02:34.251Z,43.00
2022-12-31T12:05:11.005Z,34.70
2022-12-31T12:07:42.300Z,36.88
2022-12-31T12:10:43.080Z,35.95
2022-12-31T12:13:28.848Z,30.38
2022-12-31T12:16:02.459Z,25.63
2022-12-31T12:19:07.037Z,24.88
2022-12-31T12:21:49.723Z,28.80
2022-12-31T12:24:24.582Z,23.88
2022-12-31T12:26:55.580Z,24.05
2022-12-31T12:29:36.212Z,22.30
2022-12-31T12:32:08.662Z,23.80
2022-12-31T12:34:46.071Z,26.58
2022-12-31T12:37:25.887Z,29.60
2022-12-31T12:40:33.353Z,29.80
2022-12-31T12:43:04.810Z,28.10
2022-12-31T12:45:45.157Z,23.90
2022-12-31T12:48:41.576Z,24.10
2022-12-31T12:51:33.521Z,25.38
2022-12-31T12:54:43.701Z,25.90
2022-12-31T12:57:41.698Z,23.67
2022-12-31T13:00:23.328Z,23.92
2022-12-31T13:03:11.691Z,24.05
2022-12-31T13:06:05.984Z,23.55
2022-12-31T13:09:02.460Z,26.25
2022-12-31T13:12:07.769Z,23.77
2022-12-31T13:14:59.145Z,24.48
2022-12-31T13:17:36.995Z,25.10
2022-12-31T13:20:31.476Z,23.58
2022-12-31T13:23:45.087Z,19.13
2022-12-31T13:26:44.754Z,19.52
2022-12-31T13:29:21.756Z,17.10
2022-12-31T13:31:53.770Z,16.90
2022-12-31T13:34:38.469Z,19.77
2022-12-31T13:37:39.389Z,20.90
2022-12-31T13:40:33.164Z,25.02
2022-12-31T13:43:10.199Z,44.45
2022-12-31T13:45:43.529Z,22.80
2022-12-31T13:48:24.508Z,25.75
2022-12-31T13:51:05.903Z,22.83
2022-12-31T13:53:50.978Z,23.90
2022-12-31T13:56:26.154Z,29.23
2022-12-31T13:59:08.604Z,24.77
2022-12-31T14:01:43.730Z,20.73
2022-12-31T14:04:25.306Z,21.77
2022-12-31T14:07:07.405Z,17.75
2022-12-31T14:09:41.668Z,19.35
2022-12-31T14:12:35.194Z,16.13
2022-12-31T14:15:17.449Z,17.35
2022-12-31T14:18:36.419Z,17.50
2022-12-31T14:21:12.268Z,47.72
2022-12-31T14:24:21.491Z,23.67
2022-12-31T14:27:11.298Z,27.70
2022-12-31T14:30:05.434Z,20.85
2022-12-31T14:33:11.938Z,16.88
2022-12-31T14:36:05.197Z,17.48
2022-12-31T14:38:41.874Z,15.60
2022-12-31T14:41:29.734Z,17.30
2022-12-31T14:44:27.743Z,14.13
2022-12-31T14:47:24.679Z,14.07
2022-12-31T14:50:17.265Z,13.25
2022-12-31T14:52:52.437Z,12.80
2022-12-31T14:55:29.584Z,14.90
2022-12-31T14:58:27.044Z,13.23
2022-12-31T15:00:57.578Z,11.13
2022-12-31T15:03:37.823Z,11.13
2022-12-31T15:06:25.334Z,9.43
2022-12-31T15:09:32.552Z,9.55
2022-12-31T15:12:39.865Z,8.82
2022-12-31T15:16:00.347Z,9.48
2022-12-31T15:18:53.767Z,10.95
2022-12-31T15:21:57.026Z,11.55
2022-12-31T15:24:31.547Z,11.05
2022-12-31T15:27:08.165Z,11.57
2022-12-31T15:29:44.925Z,11.10
2022-12-31T15:32:21.712Z,10.82
2022-12-31T15:35:03.269Z,10.55
2022-12-31T15:37:36.935Z,11.43
2022-12-31T15:40:31.141Z,16.38
2022-12-31T15:43:14.479Z,14.05
2022-12-31T15:45:49.098Z,12.55
2022-12-31T15:48:28.325Z,12.25
2022-12-31T15:51:01.880Z,14.43
2022-12-31T15:53:54.911Z,13.93
2022-12-31T15:56:46.202Z,24.48
2022-12-31T15:59:19.142Z,26.48
2022-12-31T16:01:50.784Z,27.67
2022-12-31T16:04:30.892Z,45.03
2022-12-31T16:07:03.146Z,51.97
2022-12-31T16:09:35.872Z,67.00
2022-12-31T16:12:12.712Z,68.95
2022-12-31T16:14:50.416Z,65.32
2022-12-31T16:17:42.835Z,58.55
2022-12-31T16:20:27.718Z,58.95
2022-12-31T16:23:00.068Z,55.67
2022-12-31T16:25:33.878Z,54.85
2022-12-31T16:28:08.121Z,54.72
2022-12-31T16:30:41.476Z,51.13
2022-12-31T16:33:15.810Z,55.90
2022-12-31T16:35:56.632Z,57.75
2022-12-31T16:38:35.664Z,56.53
2022-12-31T16:41:18.727Z,53.42
2022-12-31T16:43:51.168Z,56.85
2022-12-31T16:46:28.856Z,51.42
2022-12-31T16:49:02.685Z,54.30
2022-12-31T16:51:35.633Z,54.88
2022-12-31T16:54:06.523Z,55.25
2022-12-31T16:56:40.221Z,53.20
2022-12-31T16:59:25.839Z,54.88
2022-12-31T17:02:05.143Z,53.58
2022-12-31T17:04:36.935Z,48.85
2022-12-31T17:07:28.793Z,46.10
2022-12-31T17:10:11.291Z,43.80
2022-12-31T17:13:25.331Z,36.85
2022-12-31T17:15:43.824Z,28.20
2022-12-31T17:18:26.253Z,29.30
2022-12-31T17:20:57.577Z,24.02
2022-12-31T17:23:30.501Z,22.10
2022-12-31T17:26:09.100Z,20.80
2022-12-31T17:28:47.345Z,19.17
2022-12-31T17:31:28.621Z,18.33
2022-12-31T17:34:16.403Z,19.10
2022-12-31T17:36:59.670Z,20.08
2022-12-31T17:39:46.041Z,18.67
2022-12-31T17:42:25.799Z,19.65
2022-12-31T17:45:02.940Z,20.30
2022-12-31T17:47:39.525Z,21.40
2022-12-31T17:50:28.535Z,20.08
2022-12-31T17:53:10.181Z,19.30
2022-12-31T17:55:43.103Z,18.83
2022-12-31T17:58:29.885Z,18.25
2022-12-31T18:01:01.387Z,16.92
2022-12-31T18:03:35.635Z,15.73
2022-12-31T18:06:09.175Z,14.43
2022-12-31T18:08:43.637Z,13.02
2022-12-31T18:11:19.898Z,11.35
2022-12-31T18:13:50.972Z,12.45
2022-12-31T18:16:21.268Z,13.40
2022-12-31T18:18:55.755Z,9.50
2022-12-31T18:21:35.942Z,16.20
2022-12-31T18:24:07.476Z,13.70
2022-12-31T18:26:40.788Z,9.30
2022-12-31T18:29:17.367Z,9.25
2022-12-31T18:31:48.832Z,14.88
2022-12-31T18:34:19.949Z,7.72
2022-12-31T18:36:50.776Z,8.10
2022-12-31T18:39:23.828Z,7.50
2022-12-31T18:41:54.280Z,7.15
2022-12-31T18:44:24.871Z,6.43
2022-12-31T18:46:55.958Z,6.25
2022-12-31T18:49:26.722Z,6.55
2022-12-31T18:52:00.105Z,7.57
2022-12-31T18:54:31.272Z,7.07
2022-12-31T18:57:01.818Z,7.05
2022-12-31T18:59:32.329Z,6.30
2022-12-31T19:02:05.784Z,5.70
2022-12-31T19:04:36.492Z,5.90
2022-12-31T19:07:07.040Z,6.30
2022-12-31T19:09:46.372Z,5.78
2022-12-31T19:12:17.543Z,5.78
2022-12-31T19:14:51.186Z,5.45
2022-12-31T19:17:22.550Z,6.03
2022-12-31T19:19:52.887Z,5.60
2022-12-31T19:22:23.451Z,4.85
2022-12-31T19:24:53.733Z,3.97
2022-12-31T19:27:24.073Z,5.22
2022-12-31T19:29:54.970Z,4.30
2022-12-31T19:32:25.578Z,4.68
2022-12-31T19:34:56.014Z,4.43
2022-12-31T19:37:26.786Z,5.10
2022-12-31T19:39:57.275Z,5.10
2022-12-31T19:42:28.069Z,4.60
2022-12-31T19:44:58.941Z,3.55
2022-12-31T19:47:29.858Z,4.18
2022-12-31T19:50:01.029Z,3.85
2022-12-31T19:52:31.319Z,3.88
2022-12-31T19:55:01.766Z,3.42
2022-12-31T19:57:32.224Z,3.70
2022-12-31T20:00:03.090Z,3.60
2022-12-31T20:02:42.709Z,3.65
2022-12-31T20:05:14.479Z,3.17
2022-12-31T20:07:45.397Z,3.10
2022-12-31T20:10:16.737Z,3.10
2022-12-31T20:12:47.304Z,3.00
2022-12-31T20:15:17.695Z,2.95
2022-12-31T20:17:48.183Z,2.75
2022-12-31T20:20:19.033Z,3.40
2022-12-31T20:22:49.793Z,2.95
2022-12-31T20:25:35.402Z,3.05
2022-12-31T20:28:05.719Z,3.25
2022-12-31T20:30:39.816Z,3.47
2022-12-31T20:33:15.783Z,3.97
2022-12-31T20:35:49.789Z,3.55
2022-12-31T20:38:20.703Z,3.25
2022-12-31T20:40:51.157Z,2.90
2022-12-31T20:43:22.539Z,2.97
2022-12-31T20:45:52.893Z,2.20
2022-12-31T20:48:23.452Z,2.80
2022-12-31T20:50:58.320Z,2.90
2022-12-31T20:53:28.775Z,2.45
2022-12-31T20:55:59.146Z,3.00
2022-12-31T20:58:29.823Z,2.88
2022-12-31T21:01:00.345Z,3.58
2022-12-31T21:04:03.789Z,3.03
2022-12-31T21:06:21.910Z,4.95
2022-12-31T21:08:52.322Z,3.88
2022-12-31T21:11:41.657Z,3.92
2022-12-31T21:14:12.151Z,2.58
2022-12-31T21:16:42.833Z,3.13
2022-12-31T21:19:13.139Z,2.67
2022-12-31T21:21:46.064Z,2.67
2022-12-31T21:24:23.512Z,2.67
2022-12-31T21:26:57.983Z,2.20
2022-12-31T21:29:34.068Z,2.10
2022-12-31T21:32:07.062Z,2.30
2022-12-31T21:34:38.204Z,2.38
2022-12-31T21:37:08.754Z,2.25
2022-12-31T21:39:51.292Z,2.00
2022-12-31T21:42:21.949Z,2.22
2022-12-31T21:44:52.393Z,2.20
2022-12-31T21:47:47.132Z,2.60
2022-12-31T21:50:18.545Z,2.50
2022-12-31T21:52:52.877Z,2.10
2022-12-31T21:55:41.768Z,2.53
2022-12-31T21:58:28.403Z,2.92
2022-12-31T22:01:18.659Z,2.80
2022-12-31T22:03:49.295Z,2.85
2022-12-31T22:06:22.806Z,2.65
2022-12-31T22:08:56.333Z,2.60
2022-12-31T22:11:28.825Z,2.75
2022-12-31T22:13:59.360Z,2.60
2022-12-31T22:16:30.187Z,2.75
2022-12-31T22:19:00.881Z,2.95
2022-12-31T22:21:31.322Z,2.80
2022-12-31T22:24:11.155Z,3.38
2022-12-31T22:26:46.464Z,3.83
2022-12-31T22:29:17.131Z,3.22
2022-12-31T22:31:48.967Z,2.88
2022-12-31T22:34:25.228Z,2.60
2022-12-31T22:36:55.506Z,2.67
2022-12-31T22:39:43.613Z,2.60
2022-12-31T22:42:18.529Z,2.65
2022-12-31T22:44:49.659Z,2.58
2022-12-31T22:47:19.960Z,2.53
2022-12-31T22:49:50.754Z,2.55
2022-12-31T22:52:21.495Z,2.45
2022-12-31T22:54:52.069Z,3.00
2022-12-31T22:57:22.399Z,2.85
2022-12-31T22:59:55.888Z,2.80
2022-12-31T23:02:26.971Z,2.40
2022-12-31T23:05:16.099Z,2.75
2022-12-31T23:07:50.003Z,2.80
2022-12-31T23:10:39.273Z,2.72
2022-12-31T23:13:27.826Z,3.10
2022-12-31T23:16:17.222Z,5.00
2022-12-31T23:19:05.813Z,5.72
2022-12-31T23:21:56.057Z,3.75
2022-12-31T23:24:29.948Z,4.10
2022-12-31T23:27:00.913Z,4.20
2022-12-31T23:29:31.186Z,4.20
2022-12-31T23:32:01.803Z,4.47
2022-12-31T23:34:32.232Z,3.78
2022-12-31T23:37:06.411Z,3.83
2022-12-31T23:39:37.086Z,3.80
2022-12-31T23:42:07.718Z,4.45
2022-12-31T23:44:38.133Z,4.20
2022-12-31T23:47:14.582Z,4.57
2022-12-31T23:49:45.148Z,4.22
2022-12-31T23:52:15.721Z,4.53
2022-12-31T23:54:46.339Z,4.13
2022-12-31T23:57:17.609Z,4.18
2022-12-31T23:59:59.918Z,4.40
